Skip to main content

NOAA/GLERL Met Station at Chicago, IL

Previous 3 Hours (2 minute increments)
See also Previous 5 Days (top of hour)
Jump down to Data
Switch to [English][Metric]
Zoom: Click and drag, Pan: shift-click and drag, Unzoom: double-click, Unzoom All




See also 1-day windrose plot


NOAA/GLERL Met Station at Chicago, IL

Previous 3 Hours (2 minute increments)
See also Previous 5 Days (top of hour only)
Jump up to Graphs
Switch to [English][Metric]
                  Wind  Wind  Wind   Air   Dew   Rel
                   Spd   Gst   Dir  Temp    Pt   Hum
YYYY-MM-DD   CST   kts   kts   deg     F     F     %
2023-01-30 21:06  15.2  17.5   317   9.5  -6.9  47.0
2023-01-30 21:04  14.8  17.5   314   9.3  -7.3  46.5
2023-01-30 21:02  15.4  16.9   311   9.3  -7.4  46.4
2023-01-30 21:00  15.0  17.3   314   9.3  -7.4  46.3
2023-01-30 20:58  15.2  16.9   313   9.5  -6.8  47.4
2023-01-30 20:56  15.0  17.1   316   9.5  -6.8  47.4
2023-01-30 20:54  15.0  17.9   313   9.3  -7.4  46.3
2023-01-30 20:52  15.4  19.8   313   9.3  -7.8  45.4
2023-01-30 20:50  16.1  18.9   308   9.3  -7.9  45.2
2023-01-30 20:48  15.6  17.3   312   9.3  -7.4  46.4
2023-01-30 20:46  16.5  18.5   310   9.5  -6.8  47.4
2023-01-30 20:44  14.4  17.9   307   9.3  -7.2  46.7
2023-01-30 20:42  14.6  16.5   314   9.3  -7.3  46.5
2023-01-30 20:40  15.4  17.5   312   9.3  -7.3  46.5
2023-01-30 20:38  16.7  19.4   308   9.5  -7.1  46.6
2023-01-30 20:36  15.7  18.3   310   9.3  -7.7  45.7
2023-01-30 20:34  15.4  17.5   312   9.0  -8.5  44.6
2023-01-30 20:32  17.3  19.4   310   9.1  -7.8  45.8
2023-01-30 20:30  14.8  17.1   313   9.1  -7.6  46.3
2023-01-30 20:28  16.1  17.9   314   9.1  -7.2  47.2
2023-01-30 20:26  15.2  18.7   319   9.7  -5.7  49.4
2023-01-30 20:24  13.0  16.3   312   9.3  -6.7  47.9
2023-01-30 20:22  15.9  19.8   308   9.1  -7.1  47.4
2023-01-30 20:20  13.8  15.7   311   9.3  -6.7  48.0
2023-01-30 20:18  16.5  18.9   301   9.1  -7.0  47.7
2023-01-30 20:16  16.7  19.8   305   9.5  -6.4  48.3
2023-01-30 20:14  15.0  18.7   310   9.3  -7.1  47.0
2023-01-30 20:12  15.4  18.1   314   9.1  -7.7  46.0
2023-01-30 20:10  16.9  19.4   316   9.5  -7.3  46.3
2023-01-30 20:08  16.5  19.6   314   9.3  -7.3  46.6
2023-01-30 20:06  14.8  17.1   307   9.5  -7.2  46.5
2023-01-30 20:04  14.6  18.7   323   9.3  -7.9  45.3
2023-01-30 20:02  15.9  19.2   316   9.3  -7.9  45.3
2023-01-30 20:00  17.1  19.4   317   9.3  -7.9  45.2
2023-01-30 19:58  16.9  20.2   318   9.3  -8.4  44.3
2023-01-30 19:56  16.3  19.6   311   9.1  -8.7  44.0
2023-01-30 19:54  18.5  20.2   316   9.1  -8.4  44.5
2023-01-30 19:52  17.5  20.2   309   9.3  -7.7  45.7
2023-01-30 19:50  16.5  19.6   317   9.5  -7.2  46.4
2023-01-30 19:48  16.7  20.6   311   9.7  -6.9  46.8
2023-01-30 19:46  13.2  16.5   313   9.3  -7.7  45.6
2023-01-30 19:44  14.0  18.1   313   9.7  -7.1  46.2
2023-01-30 19:42  16.9  19.4   324   9.7  -7.1  46.3
2023-01-30 19:40  14.8  17.9   326   9.3  -7.8  45.5
2023-01-30 19:38  17.7  19.2   322   9.7  -6.7  47.1
2023-01-30 19:36  17.1  20.6   321   9.5  -6.7  47.6
2023-01-30 19:34  15.0  18.7   324   9.9  -5.3  50.1
2023-01-30 19:32  13.2  16.9   309   9.9  -5.1  50.6
2023-01-30 19:30  12.6  14.6   309   9.9  -5.6  49.3
2023-01-30 19:28  14.0  17.5   313   9.7  -6.2  48.2
2023-01-30 19:26  13.2  15.4   303   9.7  -6.3  48.0
2023-01-30 19:24  13.4  15.6   304   9.7  -6.4  47.8
2023-01-30 19:22  14.2  16.3   301   9.9  -6.1  48.2
2023-01-30 19:20  12.4  15.2   299   9.9  -6.2  47.9
2023-01-30 19:18  14.8  17.9   296  10.0  -6.2  47.6
2023-01-30 19:16  14.6  17.1   300   9.9  -6.4  47.5
2023-01-30 19:14  14.2  16.9   310   9.9  -6.7  46.7
2023-01-30 19:12  13.6  16.5   311  10.0  -6.5  46.8
2023-01-30 19:10  15.0  16.3   305  10.0  -6.2  47.5
2023-01-30 19:08  15.4  17.5   304  10.2  -5.9  47.8
2023-01-30 19:06  14.0  16.3   298  10.2  -6.1  47.4
2023-01-30 19:04  13.0  15.4   307  10.6  -5.8  47.3
2023-01-30 19:02  13.2  15.6   316   9.9  -8.4  43.1
2023-01-30 19:00  14.0  16.5   317   9.9  -8.4  43.2
2023-01-30 18:58  15.4  16.7   313   9.9  -8.2  43.6
2023-01-30 18:56  15.7  19.2   322   9.9  -8.2  43.6
2023-01-30 18:54  14.2  16.5   323   9.7  -8.5  43.3
2023-01-30 18:52  15.4  16.9   316   9.9  -8.0  44.0
2023-01-30 18:50  15.7  18.3   310   9.9  -8.2  43.6
2023-01-30 18:48  16.1  17.9   306   9.9  -7.9  44.1
2023-01-30 18:46  15.0  18.7   317   9.9  -7.8  44.5
2023-01-30 18:44  15.6  17.7   313  10.0  -7.4  44.8
2023-01-30 18:42  16.1  19.1   312  10.2  -6.8  45.9
2023-01-30 18:40  15.6  17.9   304  10.0  -7.1  45.5
2023-01-30 18:38  15.9  18.1   299  10.0  -7.1  45.5
2023-01-30 18:36  15.2  17.3   304  10.4  -6.3  46.5
2023-01-30 18:34  15.7  19.1   304  10.4  -6.6  46.0
2023-01-30 18:32  17.1  18.3   298  10.6  -6.1  46.6
2023-01-30 18:30  15.7  17.7   317  10.8  -6.2  46.1
2023-01-30 18:28  17.1  19.8   302  10.8  -6.6  45.2
2023-01-30 18:26  16.1  18.1   307  10.8  -7.2  44.0
2023-01-30 18:24  16.7  18.7   307  10.6  -7.4  43.8
2023-01-30 18:22  16.3  17.9   298  10.6  -7.2  44.2
2023-01-30 18:20  15.9  18.9   300  10.6  -7.0  44.7
2023-01-30 18:18  14.6  18.5   309  10.6  -6.7  45.4
2023-01-30 18:16  15.0  17.1   315  10.6  -6.6  45.6
2023-01-30 18:14  15.4  17.3   307  10.6  -6.3  46.2
2023-01-30 18:12  15.4  17.1   305  10.9  -5.5  47.2
2023-01-30 18:10  14.0  17.7   308  10.8  -6.0  46.6
2023-01-30 18:08  14.0  15.4   315  10.9  -5.8  46.6
2023-01-30 18:06  13.8  15.6   317  10.9  -5.6  46.9